首页
METAR-TAF:

METAR-TAF

机场 :

盐湖城国际机场

盐湖城, 犹他州, 美国

纬度: 40-46-41N, 经度: 111-58-10W, 海拔: 1288米

当前天气观测

该预报发布于41分钟前的16:54 UTC
风速4节,风向多变
温度 28°C
湿度 17%
气压 1019 hPa
能見度: 16.1公里
少量云层高于15000英尺
散云层高于20000英尺

METAR: KSLC 081654Z VRB04KT 10SM FEW150 SCT200 28/01 A3010 RMK AO2 SLP134 T02830011

时间: 11:35 (17:35 UTC)

预报

该预报发布于2小时和30分钟前的15:05 UTC
预报有效从08日的 15点(UTC)到 09日的 18点(UTC)
风速12节,风向南转南东
能見度: 10公里
天空无云
从 08日的 2000点(UTC)
风速10节,风向北转西北
能見度: 10公里
天空无云
从 09日的 0400点(UTC)
风速5节,风向南转南东
能見度: 10公里
天空无云

TAF: KSLC 081505Z 0815/0918 16012KT P6SM SKC FM082000 34010KT P6SM SKC FM090400 15005KT P6SM SKC

超过4000个机场的气象观测和天气预报(METAR&TAF报告)。

可查询的气象台以黄色和红色小点在地图上表示。

将鼠标移到小点上方,可查看气象台名称。

然后点击查看天气观测和预报。

如需切换地图:点击带黑十字的绿色按钮放大地图;点击带横线的绿色按钮缩小地图;或者点击绿色箭头查看邻近地区的地图。


METAR-TAF: